createdAt,value
2023-04-08T00:02:16.614Z,22.20
2023-04-08T00:04:44.705Z,23.40
2023-04-08T00:07:12.722Z,25.20
2023-04-08T00:09:40.767Z,26.20
2023-04-08T00:12:08.857Z,27.10
2023-04-08T00:14:38.385Z,26.40
2023-04-08T00:17:06.504Z,26.60
2023-04-08T00:19:36.189Z,26.20
2023-04-08T00:22:04.286Z,26.30
2023-04-08T00:24:32.360Z,26.30
2023-04-08T00:27:00.947Z,29.30
2023-04-08T00:29:29.509Z,28.20
2023-04-08T00:31:57.494Z,29.00
2023-04-08T00:34:25.508Z,29.30
2023-04-08T00:36:54.758Z,30.30
2023-04-08T00:39:22.767Z,31.70
2023-04-08T00:41:50.931Z,31.30
2023-04-08T00:44:18.811Z,32.60
2023-04-08T00:46:47.530Z,34.50
2023-04-08T00:49:15.664Z,38.90
2023-04-08T00:51:48.635Z,34.70
2023-04-08T00:54:22.209Z,34.30
2023-04-08T01:01:01.258Z,34.80
2023-04-08T01:04:02.969Z,37.40
2023-04-08T01:07:08.498Z,39.50
2023-04-08T01:09:47.395Z,38.60
2023-04-08T01:12:29.228Z,35.10
2023-04-08T01:15:07.142Z,33.50
2023-04-08T01:17:37.436Z,32.50
2023-04-08T01:20:07.465Z,34.60
2023-04-08T01:23:25.826Z,33.90
2023-04-08T01:25:54.412Z,30.90
2023-04-08T01:28:25.274Z,31.80
2023-04-08T01:30:56.884Z,27.50
2023-04-08T01:33:27.677Z,30.10
2023-04-08T01:35:59.150Z,29.20
2023-04-08T01:38:29.332Z,30.70
2023-04-08T01:40:57.805Z,29.50
2023-04-08T01:43:27.505Z,30.30
2023-04-08T01:45:58.598Z,30.30
2023-04-08T01:48:28.327Z,31.60
2023-04-08T01:50:57.425Z,33.10
2023-04-08T01:53:25.445Z,33.10
2023-04-08T01:55:59.153Z,36.70
2023-04-08T01:58:31.469Z,34.10
2023-04-08T02:01:00.369Z,32.40
2023-04-08T02:03:30.325Z,32.90
2023-04-08T02:05:58.472Z,33.10
2023-04-08T02:08:26.331Z,35.10
2023-04-08T02:10:55.308Z,38.10
2023-04-08T02:13:23.601Z,37.20
2023-04-08T02:15:59.349Z,38.20
2023-04-08T02:18:30.092Z,37.40
2023-04-08T02:21:33.618Z,36.10
2023-04-08T02:24:08.207Z,38.70
2023-04-08T02:29:06.663Z,41.90
2023-04-08T02:31:35.518Z,37.50
2023-04-08T02:34:06.518Z,37.30
2023-04-08T02:36:34.666Z,38.20
2023-04-08T02:39:04.076Z,35.70
2023-04-08T02:41:32.082Z,41.70
2023-04-08T02:43:59.976Z,37.90
2023-04-08T02:46:27.958Z,36.90
2023-04-08T02:48:55.864Z,33.80
2023-04-08T02:51:23.793Z,34.70
2023-04-08T02:53:51.837Z,33.30
2023-04-08T02:56:20.173Z,35.00
2023-04-08T02:58:48.321Z,38.30
2023-04-08T03:01:16.557Z,37.80
2023-04-08T03:03:44.618Z,34.50
2023-04-08T03:06:12.532Z,33.80
2023-04-08T03:08:40.470Z,34.00
2023-04-08T03:11:08.515Z,31.70
2023-04-08T03:13:36.689Z,31.60
2023-04-08T03:16:04.887Z,34.70
2023-04-08T03:18:32.857Z,35.30
2023-04-08T03:21:01.578Z,33.90
2023-04-08T03:23:29.480Z,33.50
2023-04-08T03:25:57.501Z,30.50
2023-04-08T03:28:25.440Z,31.20
2023-04-08T03:30:53.432Z,31.80
2023-04-08T03:33:21.394Z,32.00
2023-04-08T03:35:49.259Z,34.30
2023-04-08T03:38:17.214Z,32.90
2023-04-08T03:40:45.229Z,32.20
2023-04-08T03:43:13.774Z,30.40
2023-04-08T03:45:41.741Z,34.40
2023-04-08T03:48:09.730Z,34.80
2023-04-08T03:50:37.642Z,36.60
2023-04-08T03:53:05.719Z,34.80
2023-04-08T03:55:33.610Z,34.80
2023-04-08T03:58:01.494Z,34.20
2023-04-08T04:00:29.786Z,34.20
2023-04-08T04:02:57.750Z,33.70
2023-04-08T04:05:25.688Z,37.20
2023-04-08T04:07:53.620Z,38.20
2023-04-08T04:10:21.487Z,39.50
2023-04-08T04:12:50.407Z,37.40
2023-04-08T04:15:18.538Z,35.20
2023-04-08T04:17:50.907Z,37.90
2023-04-08T04:20:19.182Z,34.80
2023-04-08T04:22:47.199Z,36.20
2023-04-08T04:25:15.245Z,36.30
2023-04-08T04:27:43.172Z,38.30
2023-04-08T04:30:15.455Z,43.80
2023-04-08T04:32:43.712Z,40.30
2023-04-08T04:35:13.057Z,39.00
2023-04-08T04:37:40.985Z,37.20
2023-04-08T04:40:09.403Z,37.80
2023-04-08T04:42:37.290Z,34.80
2023-04-08T04:45:05.631Z,35.90
2023-04-08T04:47:33.540Z,39.00
2023-04-08T04:50:01.849Z,37.10
2023-04-08T04:52:29.826Z,37.40
2023-04-08T04:54:58.513Z,35.20
2023-04-08T04:57:26.700Z,35.80
2023-04-08T04:59:54.620Z,32.70
2023-04-08T05:02:22.630Z,33.80
2023-04-08T05:04:53.706Z,34.40
2023-04-08T05:07:22.477Z,32.60
2023-04-08T05:09:50.774Z,32.60
2023-04-08T05:12:20.685Z,33.20
2023-04-08T05:14:48.621Z,31.80
2023-04-08T05:17:16.629Z,32.60
2023-04-08T05:19:44.569Z,33.50
2023-04-08T05:22:12.435Z,34.10
2023-04-08T05:24:40.617Z,33.60
2023-04-08T05:27:09.264Z,34.70
2023-04-08T05:29:37.186Z,31.80
2023-04-08T05:32:06.162Z,32.30
2023-04-08T05:34:34.137Z,32.40
2023-04-08T05:37:02.292Z,31.00
2023-04-08T05:39:30.262Z,33.00
2023-04-08T05:41:58.140Z,33.50
2023-04-08T05:44:26.082Z,33.60
2023-04-08T05:46:54.244Z,31.80
2023-04-08T05:49:22.188Z,31.90
2023-04-08T05:51:50.077Z,30.90
2023-04-08T05:54:17.982Z,31.70
2023-04-08T05:56:46.660Z,32.10
2023-04-08T05:59:14.599Z,34.20
2023-04-08T06:01:42.652Z,33.00
2023-04-08T06:04:10.728Z,34.00
2023-04-08T06:06:41.594Z,31.50
2023-04-08T06:09:10.232Z,34.80
2023-04-08T06:11:38.098Z,33.80
2023-04-08T06:14:06.021Z,36.20
2023-04-08T06:16:33.952Z,34.00
2023-04-08T06:19:02.049Z,34.60
2023-04-08T06:21:30.054Z,30.70
2023-04-08T06:23:57.962Z,28.90
2023-04-08T06:26:26.257Z,27.80
2023-04-08T06:28:54.242Z,30.60
2023-04-08T06:31:22.146Z,31.20
2023-04-08T06:33:50.029Z,32.30
2023-04-08T06:36:17.976Z,29.30
2023-04-08T06:38:45.928Z,32.30
2023-04-08T06:41:13.843Z,28.10
2023-04-08T06:43:41.754Z,26.80
2023-04-08T06:46:09.674Z,27.80
2023-04-08T06:48:37.919Z,28.00
2023-04-08T06:51:07.849Z,27.30
2023-04-08T06:53:35.883Z,26.00
2023-04-08T06:56:03.986Z,31.00
2023-04-08T06:58:31.953Z,27.10
2023-04-08T07:01:01.439Z,26.30
2023-04-08T07:03:29.648Z,25.70
2023-04-08T07:05:57.744Z,25.60
2023-04-08T07:08:25.859Z,25.70
2023-04-08T07:10:54.130Z,27.80
2023-04-08T07:13:23.678Z,30.20
2023-04-08T07:20:05.764Z,30.40
2023-04-08T07:22:33.638Z,28.00
2023-04-08T07:25:01.568Z,28.50
2023-04-08T07:27:29.565Z,26.00
2023-04-08T07:29:58.585Z,26.50
2023-04-08T07:32:26.713Z,24.50
2023-04-08T07:34:54.730Z,24.10
2023-04-08T07:37:22.578Z,24.40
2023-04-08T07:39:50.517Z,23.70
2023-04-08T07:42:18.703Z,27.90
2023-04-08T07:44:46.694Z,26.10
2023-04-08T07:47:14.633Z,25.50
2023-04-08T07:49:42.828Z,26.60
2023-04-08T07:52:11.032Z,28.90
2023-04-08T07:54:39.011Z,28.60
2023-04-08T07:57:06.952Z,27.30
2023-04-08T07:59:35.121Z,25.60
2023-04-08T08:02:03.475Z,27.40
2023-04-08T08:04:32.797Z,29.20
2023-04-08T08:07:00.981Z,28.00
2023-04-08T08:09:30.114Z,28.30
2023-04-08T08:11:59.050Z,27.60
2023-04-08T08:14:26.983Z,25.80
2023-04-08T08:16:55.002Z,23.70
2023-04-08T08:19:23.248Z,24.10
2023-04-08T08:21:52.325Z,24.00
2023-04-08T08:24:20.176Z,24.30
2023-04-08T08:26:49.350Z,23.90
2023-04-08T08:29:17.252Z,21.90
2023-04-08T08:31:45.216Z,24.40
2023-04-08T08:34:13.141Z,22.80
2023-04-08T08:36:41.061Z,19.60
2023-04-08T08:39:08.926Z,19.80
2023-04-08T08:41:37.864Z,19.40
2023-04-08T08:44:07.106Z,19.80
2023-04-08T08:46:35.186Z,21.20
2023-04-08T08:49:03.252Z,22.10
2023-04-08T08:51:32.942Z,22.20
2023-04-08T08:54:03.133Z,22.30
2023-04-08T08:56:33.261Z,19.30
2023-04-08T08:59:01.238Z,18.20
2023-04-08T09:01:32.560Z,17.40
2023-04-08T09:04:21.487Z,18.00
2023-04-08T09:07:04.666Z,20.60
2023-04-08T09:09:53.371Z,19.30
2023-04-08T09:12:21.800Z,18.90
2023-04-08T09:14:51.550Z,18.90
2023-04-08T09:17:34.066Z,20.50
2023-04-08T09:20:12.291Z,19.00
2023-04-08T09:23:02.401Z,19.70
2023-04-08T09:25:32.590Z,19.10
2023-04-08T09:28:02.189Z,19.30
2023-04-08T09:30:32.644Z,18.00
2023-04-08T09:33:01.536Z,17.60
2023-04-08T09:35:32.370Z,15.60
2023-04-08T09:38:01.172Z,15.60
2023-04-08T09:40:33.936Z,17.90
2023-04-08T09:43:05.735Z,17.20
2023-04-08T09:45:36.674Z,18.20
2023-04-08T09:48:14.438Z,14.80
2023-04-08T09:50:49.728Z,14.30
2023-04-08T09:53:30.256Z,21.70
2023-04-08T09:56:00.206Z,22.20
2023-04-08T09:59:03.388Z,19.50
2023-04-08T10:01:40.202Z,19.70
2023-04-08T10:04:17.526Z,18.80
2023-04-08T10:06:47.602Z,17.90
2023-04-08T10:09:16.011Z,20.90
2023-04-08T10:11:44.221Z,18.00
2023-04-08T10:14:12.748Z,22.30
2023-04-08T10:16:41.031Z,19.40
2023-04-08T10:19:43.685Z,22.30
2023-04-08T10:22:29.908Z,18.30
2023-04-08T10:25:16.712Z,15.60
2023-04-08T10:27:45.680Z,16.60
2023-04-08T10:30:34.654Z,17.60
2023-04-08T10:33:09.542Z,19.40
2023-04-08T10:35:42.631Z,19.50
2023-04-08T10:38:12.895Z,19.10
2023-04-08T10:41:40.967Z,27.20
2023-04-08T10:45:31.559Z,20.80
2023-04-08T10:49:20.527Z,23.30
2023-04-08T10:53:09.197Z,25.10
2023-04-08T10:57:22.303Z,21.70
2023-04-08T10:59:50.300Z,18.50
2023-04-08T11:02:18.422Z,19.60
2023-04-08T11:04:48.379Z,19.60
2023-04-08T11:07:16.299Z,20.10
2023-04-08T11:09:44.224Z,19.90
2023-04-08T11:12:12.520Z,19.20
2023-04-08T11:14:42.486Z,22.30
2023-04-08T11:17:10.659Z,20.90
2023-04-08T11:19:39.380Z,19.00
2023-04-08T11:22:09.539Z,19.00
2023-04-08T11:24:37.862Z,20.90
2023-04-08T11:27:08.767Z,21.10
2023-04-08T11:29:38.294Z,22.10
2023-04-08T11:32:06.352Z,22.30
2023-04-08T11:34:39.089Z,23.00
2023-04-08T11:37:07.326Z,21.80
2023-04-08T11:39:40.673Z,22.90
2023-04-08T11:42:08.824Z,21.10
2023-04-08T11:44:36.902Z,23.20
2023-04-08T11:47:04.933Z,22.70
2023-04-08T11:49:46.354Z,23.90
2023-04-08T11:52:14.828Z,22.70
2023-04-08T11:54:43.460Z,26.00
2023-04-08T11:57:11.678Z,25.00
2023-04-08T11:59:39.588Z,25.20
2023-04-08T12:02:07.971Z,25.50
2023-04-08T12:04:36.029Z,25.80
2023-04-08T12:07:04.381Z,24.10
2023-04-08T12:09:32.359Z,25.70
2023-04-08T12:12:01.354Z,26.00
2023-04-08T12:14:29.508Z,25.40
2023-04-08T12:16:57.346Z,26.10
2023-04-08T12:19:25.250Z,27.90
2023-04-08T12:21:53.156Z,27.50
2023-04-08T12:24:21.520Z,27.00
2023-04-08T12:29:53.499Z,25.30
2023-04-08T12:32:22.398Z,27.10
2023-04-08T12:34:56.952Z,26.30
2023-04-08T12:37:51.482Z,27.80
2023-04-08T12:40:19.613Z,27.40
2023-04-08T12:42:48.661Z,26.80
2023-04-08T12:45:16.646Z,27.20
2023-04-08T12:47:44.629Z,28.30
2023-04-08T12:50:12.735Z,29.60
2023-04-08T12:52:40.857Z,36.50
2023-04-08T12:55:09.156Z,32.30
2023-04-08T12:57:37.101Z,30.20
2023-04-08T13:00:05.733Z,29.10
2023-04-08T13:02:33.791Z,28.50
2023-04-08T13:05:02.054Z,28.60
2023-04-08T13:07:29.988Z,84.80
2023-04-08T13:09:57.828Z,34.00
2023-04-08T13:12:25.712Z,35.20
2023-04-08T13:14:53.649Z,34.10
2023-04-08T13:17:21.610Z,30.30
2023-04-08T13:19:50.230Z,29.10
2023-04-08T13:22:18.102Z,29.60
2023-04-08T13:24:46.875Z,31.60
2023-04-08T13:27:14.903Z,31.50
2023-04-08T13:29:43.037Z,30.40
2023-04-08T13:32:11.097Z,31.40
2023-04-08T13:34:39.053Z,29.40
2023-04-08T13:37:07.348Z,28.80
2023-04-08T13:39:35.714Z,30.80
2023-04-08T13:42:04.282Z,31.00
2023-04-08T13:44:33.382Z,31.50
2023-04-08T13:47:02.062Z,31.30
2023-04-08T13:49:30.008Z,29.10
2023-04-08T13:51:57.876Z,29.30
2023-04-08T13:54:25.982Z,31.00
2023-04-08T13:56:54.033Z,38.30
2023-04-08T13:59:21.955Z,33.30
2023-04-08T14:01:54.292Z,32.20
2023-04-08T14:04:23.269Z,32.10
2023-04-08T14:06:53.327Z,29.90
2023-04-08T14:09:21.339Z,29.60
2023-04-08T14:11:49.246Z,27.90
2023-04-08T14:14:17.187Z,28.90
2023-04-08T14:16:45.173Z,29.00
2023-04-08T14:19:13.412Z,30.70
2023-04-08T14:21:41.494Z,35.30
2023-04-08T14:24:09.709Z,32.70
2023-04-08T14:26:38.505Z,33.70
2023-04-08T14:29:07.849Z,29.40
2023-04-08T14:31:36.656Z,32.70
2023-04-08T14:34:05.087Z,29.20
2023-04-08T14:36:33.060Z,30.60
2023-04-08T14:39:01.360Z,31.80
2023-04-08T14:41:29.317Z,67.20
2023-04-08T14:44:21.927Z,37.30
2023-04-08T14:46:50.122Z,33.80
2023-04-08T14:49:18.302Z,28.60
2023-04-08T14:51:46.275Z,26.40
2023-04-08T14:54:14.426Z,29.00
2023-04-08T14:56:42.305Z,32.50
2023-04-08T14:59:10.240Z,25.00
2023-04-08T15:01:38.444Z,28.10
2023-04-08T15:04:06.644Z,24.90
2023-04-08T15:06:35.080Z,28.10
2023-04-08T15:09:03.773Z,26.90
2023-04-08T15:11:31.673Z,27.20
2023-04-08T15:13:59.556Z,25.90
2023-04-08T15:16:27.550Z,26.50
2023-04-08T15:18:55.608Z,27.20
2023-04-08T15:21:23.538Z,31.20
2023-04-08T15:23:51.719Z,26.20
2023-04-08T15:26:19.723Z,28.90
2023-04-08T15:28:47.803Z,26.60
2023-04-08T15:31:16.011Z,26.00
2023-04-08T15:33:47.040Z,26.60
2023-04-08T15:36:19.759Z,24.60
2023-04-08T15:38:48.627Z,26.10
2023-04-08T15:41:21.381Z,28.30
2023-04-08T15:43:49.428Z,29.00
2023-04-08T15:46:21.381Z,29.00
2023-04-08T15:48:51.039Z,32.30
2023-04-08T15:51:20.485Z,33.80
2023-04-08T15:53:50.490Z,40.40
2023-04-08T15:56:19.291Z,48.40
2023-04-08T15:58:47.294Z,43.20
2023-04-08T16:01:16.926Z,40.50
2023-04-08T16:03:44.889Z,35.50
2023-04-08T16:06:12.879Z,35.90
2023-04-08T16:08:40.787Z,35.50
2023-04-08T16:11:08.955Z,34.10
2023-04-08T16:13:39.248Z,34.60
2023-04-08T16:16:12.643Z,35.80
2023-04-08T16:18:47.434Z,37.10
2023-04-08T16:21:15.916Z,40.20
2023-04-08T16:23:43.845Z,39.00
2023-04-08T16:26:12.916Z,36.60
2023-04-08T16:28:40.992Z,35.90
2023-04-08T16:31:09.017Z,37.00
2023-04-08T16:33:37.344Z,39.60
2023-04-08T16:36:05.446Z,43.30
2023-04-08T16:38:33.376Z,57.50
2023-04-08T16:41:02.107Z,41.30
2023-04-08T16:43:30.058Z,44.10
2023-04-08T16:45:58.080Z,44.10
2023-04-08T16:48:26.214Z,48.30
2023-04-08T16:50:54.391Z,45.80
2023-04-08T16:53:22.372Z,48.40
2023-04-08T16:55:50.335Z,46.50
2023-04-08T16:58:18.338Z,47.60
2023-04-08T17:00:46.374Z,51.30
2023-04-08T17:03:14.535Z,42.80
2023-04-08T17:05:42.581Z,47.20
2023-04-08T17:08:10.730Z,45.50
2023-04-08T17:10:38.641Z,46.70
2023-04-08T17:13:06.819Z,50.30
2023-04-08T17:15:38.758Z,52.20
2023-04-08T17:19:24.130Z,53.60
2023-04-08T17:21:52.199Z,53.00
2023-04-08T17:24:20.705Z,59.90
2023-04-08T17:26:49.477Z,61.30
2023-04-08T17:29:17.500Z,61.20
2023-04-08T17:31:45.585Z,60.90
2023-04-08T17:34:13.549Z,69.20
2023-04-08T17:36:41.805Z,69.40
2023-04-08T17:39:09.674Z,72.50
2023-04-08T17:41:40.752Z,70.30
2023-04-08T17:44:09.372Z,69.00
2023-04-08T17:46:37.350Z,70.60
2023-04-08T17:49:05.410Z,67.90
2023-04-08T17:51:34.494Z,65.90
2023-04-08T17:54:02.587Z,66.60
2023-04-08T17:56:31.162Z,65.00
2023-04-08T17:58:59.255Z,61.50
2023-04-08T18:01:27.607Z,57.20
2023-04-08T18:03:56.272Z,54.30
2023-04-08T18:06:24.666Z,60.10
2023-04-08T18:08:52.855Z,76.40
2023-04-08T18:11:22.967Z,73.60
2023-04-08T18:13:51.278Z,72.60
2023-04-08T18:16:21.305Z,67.40
2023-04-08T18:18:49.631Z,64.00
2023-04-08T18:21:18.518Z,67.00
2023-04-08T18:23:49.512Z,97.00
2023-04-08T18:26:18.033Z,64.30
2023-04-08T18:28:46.272Z,66.80
2023-04-08T18:31:14.539Z,66.40
2023-04-08T18:33:42.760Z,65.00
2023-04-08T18:36:12.806Z,63.90
2023-04-08T18:38:42.067Z,64.10
2023-04-08T18:41:11.766Z,71.70
2023-04-08T18:43:39.961Z,72.30
2023-04-08T18:46:08.028Z,83.10
2023-04-08T18:48:36.362Z,89.50
2023-04-08T18:51:04.453Z,75.60
2023-04-08T18:53:32.563Z,73.40
2023-04-08T18:56:00.651Z,74.80
2023-04-08T18:58:29.036Z,74.70
2023-04-08T19:00:57.200Z,74.50
2023-04-08T19:03:27.282Z,82.40
2023-04-08T19:05:55.661Z,88.40
2023-04-08T19:08:23.974Z,84.00
2023-04-08T19:10:52.257Z,88.30
2023-04-08T19:13:22.284Z,86.40
2023-04-08T19:15:50.728Z,81.30
2023-04-08T19:18:19.518Z,84.90
2023-04-08T19:20:48.453Z,89.10
2023-04-08T19:23:19.006Z,82.00
2023-04-08T19:25:47.527Z,84.00
2023-04-08T19:28:15.534Z,89.00
2023-04-08T19:30:43.627Z,90.30
2023-04-08T19:33:11.616Z,88.60
2023-04-08T19:35:40.187Z,85.80
2023-04-08T19:38:08.415Z,86.00
2023-04-08T19:40:36.487Z,83.80
2023-04-08T19:43:05.297Z,87.40
2023-04-08T19:45:34.351Z,91.00
2023-04-08T19:48:02.965Z,95.30
2023-04-08T19:50:31.163Z,95.40
2023-04-08T19:52:59.170Z,106.90
2023-04-08T19:55:27.962Z,100.70
2023-04-08T19:57:56.125Z,142.50
2023-04-08T20:00:25.261Z,163.80
2023-04-08T20:02:53.487Z,160.10
2023-04-08T20:05:21.829Z,120.60
2023-04-08T20:07:49.852Z,143.20
2023-04-08T20:10:17.958Z,154.00
2023-04-08T20:12:45.914Z,132.50
2023-04-08T20:15:23.754Z,107.50
2023-04-08T20:17:53.651Z,84.00
2023-04-08T20:20:21.810Z,97.20
2023-04-08T20:22:50.607Z,104.00
2023-04-08T20:25:18.747Z,96.90
2023-04-08T20:27:46.664Z,106.40
2023-04-08T20:30:14.726Z,139.10
2023-04-08T20:32:42.717Z,139.40
2023-04-08T20:35:11.101Z,159.00
2023-04-08T20:37:39.133Z,154.00
2023-04-08T20:40:08.214Z,149.80
2023-04-08T20:42:36.594Z,172.40
2023-04-08T20:45:06.119Z,84.70
2023-04-08T20:47:34.130Z,112.90
2023-04-08T20:50:02.096Z,120.60
2023-04-08T20:52:30.029Z,90.90
2023-04-08T20:54:58.212Z,77.80
2023-04-08T20:57:26.328Z,94.00
2023-04-08T20:59:54.252Z,92.90
2023-04-08T21:02:22.953Z,160.80
2023-04-08T21:04:51.108Z,141.50
2023-04-08T21:07:19.095Z,159.30
2023-04-08T21:09:48.750Z,109.70
2023-04-08T21:12:16.658Z,89.30
2023-04-08T21:14:47.387Z,88.40
2023-04-08T21:17:15.338Z,99.20
2023-04-08T21:19:43.774Z,107.30
2023-04-08T21:22:11.752Z,105.00
2023-04-08T21:24:39.691Z,122.60
2023-04-08T21:27:07.579Z,114.30
2023-04-08T21:29:35.597Z,93.60
2023-04-08T21:36:52.189Z,87.80
2023-04-08T21:39:20.181Z,84.20
2023-04-08T21:41:48.220Z,82.20
2023-04-08T21:44:16.374Z,85.70
2023-04-08T21:46:44.446Z,89.90
2023-04-08T21:49:13.897Z,81.70
2023-04-08T21:51:41.917Z,86.50
2023-04-08T21:54:09.888Z,78.40
2023-04-08T21:56:38.678Z,68.90
2023-04-08T21:59:06.838Z,67.40
2023-04-08T22:01:34.928Z,67.80
2023-04-08T22:04:03.207Z,61.70
2023-04-08T22:06:32.963Z,66.40
2023-04-08T22:09:01.543Z,61.80
2023-04-08T22:11:29.786Z,57.40
2023-04-08T22:13:57.752Z,60.30
2023-04-08T22:16:25.726Z,63.30
2023-04-08T22:18:53.984Z,66.50
2023-04-08T22:21:23.723Z,60.50
2023-04-08T22:23:51.761Z,59.10
2023-04-08T22:26:19.752Z,61.20
2023-04-08T22:28:47.768Z,64.30
2023-04-08T22:31:15.836Z,69.00
2023-04-08T22:33:43.959Z,69.20
2023-04-08T22:36:12.036Z,60.40
2023-04-08T22:38:39.977Z,57.90
2023-04-08T22:41:20.967Z,56.40
2023-04-08T22:43:49.755Z,62.20
2023-04-08T22:46:18.686Z,64.30
2023-04-08T22:48:47.245Z,64.40
2023-04-08T22:51:15.921Z,55.30
2023-04-08T22:53:43.941Z,59.60
2023-04-08T22:56:11.901Z,56.00
2023-04-08T22:58:39.878Z,58.30
2023-04-08T23:01:22.628Z,58.30
2023-04-08T23:03:50.676Z,64.10
2023-04-08T23:06:18.886Z,72.20
2023-04-08T23:08:47.122Z,75.70
2023-04-08T23:11:15.483Z,79.50
2023-04-08T23:13:43.429Z,80.20
2023-04-08T23:16:11.445Z,74.50
2023-04-08T23:18:39.434Z,84.10
2023-04-08T23:21:07.384Z,95.10
2023-04-08T23:23:35.374Z,113.30
2023-04-08T23:26:03.244Z,159.20
2023-04-08T23:28:31.302Z,154.40
2023-04-08T23:30:59.246Z,127.20
2023-04-08T23:33:27.207Z,127.10
2023-04-08T23:35:55.418Z,112.50
2023-04-08T23:38:23.447Z,108.10
2023-04-08T23:40:51.601Z,112.30
2023-04-08T23:43:19.629Z,121.50
2023-04-08T23:45:47.635Z,115.60
2023-04-08T23:48:15.618Z,97.70
2023-04-08T23:50:43.573Z,88.40
2023-04-08T23:53:11.499Z,94.70
2023-04-08T23:55:39.420Z,93.10
2023-04-08T23:58:07.392Z,92.10
